Ong, Nebraska
Current Conditions -  °F | °C
As of 3:55 AM on Monday 22 Dec 2014 (Local Time) from KHJH Reporting Station
Drizzle Drizzle  
Wind Chill: 37°   Ceiling: 400
Heat Index: 43°   Visibility: 4mi
Dew Point: 41°   Wind: 12mph
Humidity: 93%   Direction: 180°S
Pressure: 29.53"   Gusts: NA
Location:  40.4°N, 97.84°W
Report Text: KHJH 220955Z AUTO 18010KT 4SM DZ OVC004 06/05 A2953 RMK AO2 P0002 T00610050
Loading
Personal Weather Stations






























Interactive Weather Map New forecast layout! Learn more

10-Day Weather Forecast

Advertisements
Track Severe Weather on mobile